sensor_id;sensor_type;location;lat;lon;timestamp;P1;durP1;ratioP1;P2;durP2;ratioP2
17369;SDS011;8802;52.402;4.920;2023-05-29T00:01:09;12.90;;;3.03;;
17369;SDS011;8802;52.402;4.920;2023-05-29T00:03:36;6.60;;;2.20;;
17369;SDS011;8802;52.402;4.920;2023-05-29T00:06:03;14.00;;;2.67;;
17369;SDS011;8802;52.402;4.920;2023-05-29T00:08:32;7.90;;;2.17;;
17369;SDS011;8802;52.402;4.920;2023-05-29T00:10:59;8.38;;;2.30;;
17369;SDS011;8802;52.402;4.920;2023-05-29T00:13:26;8.32;;;2.08;;
17369;SDS011;8802;52.402;4.920;2023-05-29T00:15:53;9.68;;;2.40;;
17369;SDS011;8802;52.402;4.920;2023-05-29T00:18:20;13.38;;;2.83;;
17369;SDS011;8802;52.402;4.920;2023-05-29T00:20:47;9.82;;;2.63;;
17369;SDS011;8802;52.402;4.920;2023-05-29T00:23:14;8.25;;;2.08;;
17369;SDS011;8802;52.402;4.920;2023-05-29T00:25:42;14.00;;;2.88;;
17369;SDS011;8802;52.402;4.920;2023-05-29T00:28:09;7.72;;;2.28;;
17369;SDS011;8802;52.402;4.920;2023-05-29T00:30:37;11.40;;;2.78;;
17369;SDS011;8802;52.402;4.920;2023-05-29T00:33:04;11.27;;;2.65;;
17369;SDS011;8802;52.402;4.920;2023-05-29T00:35:32;7.45;;;2.30;;
17369;SDS011;8802;52.402;4.920;2023-05-29T00:37:58;7.75;;;2.35;;
17369;SDS011;8802;52.402;4.920;2023-05-29T00:40:25;11.35;;;3.17;;
17369;SDS011;8802;52.402;4.920;2023-05-29T00:42:54;13.75;;;3.25;;
17369;SDS011;8802;52.402;4.920;2023-05-29T00:45:20;10.43;;;2.30;;
17369;SDS011;8802;52.402;4.920;2023-05-29T00:47:47;6.72;;;2.15;;
17369;SDS011;8802;52.402;4.920;2023-05-29T00:50:14;11.45;;;2.50;;
17369;SDS011;8802;52.402;4.920;2023-05-29T00:52:42;9.93;;;2.28;;
17369;SDS011;8802;52.402;4.920;2023-05-29T00:55:11;9.02;;;2.50;;
17369;SDS011;8802;52.402;4.920;2023-05-29T00:57:39;12.93;;;2.42;;
17369;SDS011;8802;52.402;4.920;2023-05-29T01:00:08;7.55;;;2.42;;
17369;SDS011;8802;52.402;4.920;2023-05-29T01:02:39;12.73;;;2.80;;
17369;SDS011;8802;52.402;4.920;2023-05-29T01:05:09;7.00;;;2.25;;
17369;SDS011;8802;52.402;4.920;2023-05-29T01:07:36;9.52;;;2.50;;
17369;SDS011;8802;52.402;4.920;2023-05-29T01:10:04;10.50;;;2.50;;
17369;SDS011;8802;52.402;4.920;2023-05-29T01:12:33;9.20;;;2.28;;
17369;SDS011;8802;52.402;4.920;2023-05-29T01:15:14;10.55;;;2.70;;
17369;SDS011;8802;52.402;4.920;2023-05-29T01:17:51;12.50;;;2.95;;
17369;SDS011;8802;52.402;4.920;2023-05-29T01:20:40;13.95;;;2.65;;
17369;SDS011;8802;52.402;4.920;2023-05-29T01:26:11;8.90;;;2.22;;
17369;SDS011;8802;52.402;4.920;2023-05-29T01:28:52;10.13;;;2.08;;
17369;SDS011;8802;52.402;4.920;2023-05-29T01:31:23;9.27;;;2.13;;
17369;SDS011;8802;52.402;4.920;2023-05-29T01:33:52;8.80;;;2.45;;
17369;SDS011;8802;52.402;4.920;2023-05-29T01:36:20;9.10;;;2.38;;
17369;SDS011;8802;52.402;4.920;2023-05-29T01:38:47;7.03;;;2.00;;
17369;SDS011;8802;52.402;4.920;2023-05-29T01:41:15;9.40;;;2.25;;
17369;SDS011;8802;52.402;4.920;2023-05-29T01:43:43;13.75;;;2.95;;
17369;SDS011;8802;52.402;4.920;2023-05-29T01:46:12;12.10;;;2.38;;
17369;SDS011;8802;52.402;4.920;2023-05-29T01:48:39;10.98;;;2.60;;
17369;SDS011;8802;52.402;4.920;2023-05-29T01:51:07;10.73;;;1.92;;
17369;SDS011;8802;52.402;4.920;2023-05-29T01:53:35;9.82;;;2.25;;
17369;SDS011;8802;52.402;4.920;2023-05-29T01:56:02;13.10;;;1.98;;
17369;SDS011;8802;52.402;4.920;2023-05-29T01:58:31;11.43;;;1.98;;
17369;SDS011;8802;52.402;4.920;2023-05-29T02:00:59;10.98;;;2.40;;
17369;SDS011;8802;52.402;4.920;2023-05-29T02:03:30;10.18;;;2.47;;
17369;SDS011;8802;52.402;4.920;2023-05-29T02:05:57;11.52;;;3.17;;
17369;SDS011;8802;52.402;4.920;2023-05-29T02:08:24;8.18;;;2.15;;
17369;SDS011;8802;52.402;4.920;2023-05-29T02:10:52;10.05;;;2.53;;
17369;SDS011;8802;52.402;4.920;2023-05-29T02:13:19;9.18;;;2.75;;
17369;SDS011;8802;52.402;4.920;2023-05-29T02:15:46;9.32;;;2.10;;
17369;SDS011;8802;52.402;4.920;2023-05-29T02:18:13;12.80;;;2.47;;
17369;SDS011;8802;52.402;4.920;2023-05-29T02:20:43;11.20;;;2.10;;
17369;SDS011;8802;52.402;4.920;2023-05-29T02:23:11;7.25;;;2.30;;
17369;SDS011;8802;52.402;4.920;2023-05-29T02:25:38;13.38;;;2.70;;
17369;SDS011;8802;52.402;4.920;2023-05-29T02:28:05;15.63;;;2.63;;
17369;SDS011;8802;52.402;4.920;2023-05-29T02:30:32;9.15;;;2.40;;
17369;SDS011;8802;52.402;4.920;2023-05-29T02:32:59;11.13;;;2.38;;
17369;SDS011;8802;52.402;4.920;2023-05-29T02:35:26;10.30;;;2.20;;
17369;SDS011;8802;52.402;4.920;2023-05-29T02:37:55;6.93;;;2.08;;
17369;SDS011;8802;52.402;4.920;2023-05-29T02:40:23;8.90;;;1.88;;
17369;SDS011;8802;52.402;4.920;2023-05-29T02:42:50;10.73;;;2.60;;
17369;SDS011;8802;52.402;4.920;2023-05-29T02:45:17;8.00;;;2.42;;
17369;SDS011;8802;52.402;4.920;2023-05-29T02:47:44;11.13;;;2.70;;
17369;SDS011;8802;52.402;4.920;2023-05-29T02:50:11;9.68;;;2.15;;
17369;SDS011;8802;52.402;4.920;2023-05-29T02:52:39;11.43;;;2.45;;
17369;SDS011;8802;52.402;4.920;2023-05-29T02:55:08;11.27;;;2.75;;
17369;SDS011;8802;52.402;4.920;2023-05-29T02:57:35;9.73;;;2.40;;
17369;SDS011;8802;52.402;4.920;2023-05-29T03:00:02;9.02;;;2.10;;
17369;SDS011;8802;52.402;4.920;2023-05-29T03:02:32;10.02;;;2.55;;
17369;SDS011;8802;52.402;4.920;2023-05-29T03:05:00;10.35;;;2.72;;
17369;SDS011;8802;52.402;4.920;2023-05-29T03:07:27;9.10;;;2.17;;
17369;SDS011;8802;52.402;4.920;2023-05-29T03:09:54;10.02;;;2.10;;
17369;SDS011;8802;52.402;4.920;2023-05-29T03:12:23;9.55;;;2.15;;
17369;SDS011;8802;52.402;4.920;2023-05-29T03:14:50;10.27;;;2.35;;
17369;SDS011;8802;52.402;4.920;2023-05-29T03:17:17;7.75;;;2.03;;
17369;SDS011;8802;52.402;4.920;2023-05-29T03:19:44;9.30;;;2.60;;
17369;SDS011;8802;52.402;4.920;2023-05-29T03:22:10;6.25;;;1.58;;
17369;SDS011;8802;52.402;4.920;2023-05-29T03:24:37;11.38;;;2.30;;
17369;SDS011;8802;52.402;4.920;2023-05-29T03:27:04;13.68;;;2.70;;
17369;SDS011;8802;52.402;4.920;2023-05-29T03:29:33;7.00;;;2.30;;
17369;SDS011;8802;52.402;4.920;2023-05-29T03:31:59;11.07;;;2.60;;
17369;SDS011;8802;52.402;4.920;2023-05-29T03:34:27;8.00;;;2.63;;
17369;SDS011;8802;52.402;4.920;2023-05-29T03:36:54;10.25;;;2.38;;
17369;SDS011;8802;52.402;4.920;2023-05-29T03:39:22;9.52;;;2.50;;
17369;SDS011;8802;52.402;4.920;2023-05-29T03:41:49;7.15;;;1.90;;
17369;SDS011;8802;52.402;4.920;2023-05-29T03:44:16;9.68;;;2.00;;
17369;SDS011;8802;52.402;4.920;2023-05-29T03:46:44;9.68;;;2.05;;
17369;SDS011;8802;52.402;4.920;2023-05-29T03:49:11;9.07;;;2.53;;
17369;SDS011;8802;52.402;4.920;2023-05-29T03:51:37;9.95;;;2.10;;
17369;SDS011;8802;52.402;4.920;2023-05-29T03:54:05;10.70;;;2.58;;
17369;SDS011;8802;52.402;4.920;2023-05-29T03:56:31;12.45;;;2.13;;
17369;SDS011;8802;52.402;4.920;2023-05-29T03:59:00;8.80;;;2.03;;
17369;SDS011;8802;52.402;4.920;2023-05-29T04:01:27;9.25;;;2.22;;
17369;SDS011;8802;52.402;4.920;2023-05-29T04:03:55;13.48;;;2.40;;
17369;SDS011;8802;52.402;4.920;2023-05-29T04:06:22;10.45;;;2.00;;
17369;SDS011;8802;52.402;4.920;2023-05-29T04:08:49;7.05;;;2.08;;
17369;SDS011;8802;52.402;4.920;2023-05-29T04:11:16;7.22;;;2.28;;
17369;SDS011;8802;52.402;4.920;2023-05-29T04:13:45;10.32;;;2.20;;
17369;SDS011;8802;52.402;4.920;2023-05-29T04:16:12;7.15;;;2.00;;
17369;SDS011;8802;52.402;4.920;2023-05-29T04:18:39;7.28;;;1.92;;
17369;SDS011;8802;52.402;4.920;2023-05-29T04:21:08;7.88;;;2.50;;
17369;SDS011;8802;52.402;4.920;2023-05-29T04:23:35;12.48;;;2.33;;
17369;SDS011;8802;52.402;4.920;2023-05-29T04:26:02;10.18;;;2.00;;
17369;SDS011;8802;52.402;4.920;2023-05-29T04:28:30;8.38;;;2.40;;
17369;SDS011;8802;52.402;4.920;2023-05-29T04:30:57;9.88;;;2.10;;
17369;SDS011;8802;52.402;4.920;2023-05-29T04:33:25;10.40;;;2.35;;
17369;SDS011;8802;52.402;4.920;2023-05-29T04:35:53;10.80;;;3.10;;
17369;SDS011;8802;52.402;4.920;2023-05-29T04:38:21;10.57;;;2.33;;
17369;SDS011;8802;52.402;4.920;2023-05-29T04:40:50;9.93;;;2.22;;
17369;SDS011;8802;52.402;4.920;2023-05-29T04:43:17;9.07;;;2.65;;
17369;SDS011;8802;52.402;4.920;2023-05-29T04:45:44;12.15;;;3.03;;
17369;SDS011;8802;52.402;4.920;2023-05-29T04:48:11;12.15;;;2.75;;
17369;SDS011;8802;52.402;4.920;2023-05-29T04:50:38;8.75;;;2.65;;
17369;SDS011;8802;52.402;4.920;2023-05-29T04:53:06;9.88;;;2.65;;
17369;SDS011;8802;52.402;4.920;2023-05-29T04:55:34;11.48;;;3.03;;
17369;SDS011;8802;52.402;4.920;2023-05-29T04:58:01;10.48;;;2.42;;
17369;SDS011;8802;52.402;4.920;2023-05-29T05:00:28;9.80;;;2.63;;
17369;SDS011;8802;52.402;4.920;2023-05-29T05:02:55;12.85;;;2.80;;
17369;SDS011;8802;52.402;4.920;2023-05-29T05:05:23;7.30;;;2.10;;
17369;SDS011;8802;52.402;4.920;2023-05-29T05:07:49;11.23;;;2.63;;
17369;SDS011;8802;52.402;4.920;2023-05-29T05:10:16;12.10;;;2.85;;
17369;SDS011;8802;52.402;4.920;2023-05-29T05:12:45;13.73;;;2.92;;
17369;SDS011;8802;52.402;4.920;2023-05-29T05:15:12;13.02;;;2.47;;
17369;SDS011;8802;52.402;4.920;2023-05-29T05:17:39;7.45;;;2.08;;
17369;SDS011;8802;52.402;4.920;2023-05-29T05:20:06;8.32;;;2.13;;
17369;SDS011;8802;52.402;4.920;2023-05-29T05:22:33;9.73;;;2.70;;
17369;SDS011;8802;52.402;4.920;2023-05-29T05:25:00;6.20;;;2.03;;
17369;SDS011;8802;52.402;4.920;2023-05-29T05:27:29;8.27;;;2.03;;
17369;SDS011;8802;52.402;4.920;2023-05-29T05:29:57;11.55;;;2.63;;
17369;SDS011;8802;52.402;4.920;2023-05-29T05:32:24;8.55;;;2.15;;
17369;SDS011;8802;52.402;4.920;2023-05-29T05:34:51;10.98;;;2.85;;
17369;SDS011;8802;52.402;4.920;2023-05-29T05:37:18;10.38;;;2.40;;
17369;SDS011;8802;52.402;4.920;2023-05-29T05:39:48;11.02;;;2.50;;
17369;SDS011;8802;52.402;4.920;2023-05-29T05:42:15;7.85;;;1.80;;
17369;SDS011;8802;52.402;4.920;2023-05-29T05:44:41;9.68;;;2.58;;
17369;SDS011;8802;52.402;4.920;2023-05-29T05:47:10;10.55;;;2.25;;
17369;SDS011;8802;52.402;4.920;2023-05-29T05:49:37;9.30;;;1.95;;
17369;SDS011;8802;52.402;4.920;2023-05-29T05:52:04;12.00;;;2.58;;
17369;SDS011;8802;52.402;4.920;2023-05-29T05:54:31;10.55;;;2.10;;
17369;SDS011;8802;52.402;4.920;2023-05-29T05:56:58;7.18;;;2.05;;
17369;SDS011;8802;52.402;4.920;2023-05-29T05:59:25;7.95;;;2.17;;
17369;SDS011;8802;52.402;4.920;2023-05-29T06:01:52;12.88;;;2.50;;
17369;SDS011;8802;52.402;4.920;2023-05-29T06:04:20;8.93;;;2.10;;
17369;SDS011;8802;52.402;4.920;2023-05-29T06:06:47;8.07;;;2.30;;
17369;SDS011;8802;52.402;4.920;2023-05-29T06:09:14;7.90;;;1.95;;
17369;SDS011;8802;52.402;4.920;2023-05-29T06:11:41;12.40;;;2.17;;
17369;SDS011;8802;52.402;4.920;2023-05-29T06:14:08;11.00;;;2.78;;
17369;SDS011;8802;52.402;4.920;2023-05-29T06:16:35;9.68;;;2.60;;
17369;SDS011;8802;52.402;4.920;2023-05-29T06:19:02;8.88;;;1.98;;
17369;SDS011;8802;52.402;4.920;2023-05-29T06:21:31;8.38;;;2.30;;
17369;SDS011;8802;52.402;4.920;2023-05-29T06:23:58;7.63;;;2.08;;
17369;SDS011;8802;52.402;4.920;2023-05-29T06:26:25;12.45;;;3.53;;
17369;SDS011;8802;52.402;4.920;2023-05-29T06:28:53;9.55;;;2.42;;
17369;SDS011;8802;52.402;4.920;2023-05-29T06:31:20;9.88;;;2.40;;
17369;SDS011;8802;52.402;4.920;2023-05-29T06:33:47;10.23;;;2.15;;
17369;SDS011;8802;52.402;4.920;2023-05-29T06:36:14;8.02;;;2.38;;
17369;SDS011;8802;52.402;4.920;2023-05-29T06:38:46;5.38;;;1.95;;
17369;SDS011;8802;52.402;4.920;2023-05-29T06:41:14;13.10;;;2.83;;
17369;SDS011;8802;52.402;4.920;2023-05-29T06:43:41;8.63;;;1.80;;
17369;SDS011;8802;52.402;4.920;2023-05-29T06:46:08;7.80;;;2.38;;
17369;SDS011;8802;52.402;4.920;2023-05-29T06:48:36;9.05;;;2.38;;
17369;SDS011;8802;52.402;4.920;2023-05-29T06:51:03;6.68;;;1.98;;
17369;SDS011;8802;52.402;4.920;2023-05-29T06:53:34;5.82;;;1.75;;
17369;SDS011;8802;52.402;4.920;2023-05-29T06:56:02;8.68;;;2.20;;
17369;SDS011;8802;52.402;4.920;2023-05-29T06:58:29;8.20;;;2.40;;
17369;SDS011;8802;52.402;4.920;2023-05-29T07:00:56;8.57;;;2.05;;
17369;SDS011;8802;52.402;4.920;2023-05-29T07:03:25;7.38;;;2.45;;
17369;SDS011;8802;52.402;4.920;2023-05-29T07:05:52;8.25;;;2.30;;
17369;SDS011;8802;52.402;4.920;2023-05-29T07:08:19;9.48;;;2.40;;
17369;SDS011;8802;52.402;4.920;2023-05-29T07:10:46;8.55;;;2.22;;
17369;SDS011;8802;52.402;4.920;2023-05-29T07:13:16;5.20;;;2.10;;
17369;SDS011;8802;52.402;4.920;2023-05-29T07:15:43;8.27;;;2.17;;
17369;SDS011;8802;52.402;4.920;2023-05-29T07:18:10;7.55;;;2.05;;
17369;SDS011;8802;52.402;4.920;2023-05-29T07:20:37;9.20;;;2.20;;
17369;SDS011;8802;52.402;4.920;2023-05-29T07:23:04;8.40;;;2.42;;
17369;SDS011;8802;52.402;4.920;2023-05-29T07:25:31;9.30;;;2.22;;
17369;SDS011;8802;52.402;4.920;2023-05-29T07:27:59;9.05;;;2.20;;
17369;SDS011;8802;52.402;4.920;2023-05-29T07:30:27;10.48;;;2.50;;
17369;SDS011;8802;52.402;4.920;2023-05-29T07:32:54;9.38;;;2.10;;
17369;SDS011;8802;52.402;4.920;2023-05-29T07:35:21;7.88;;;2.03;;
17369;SDS011;8802;52.402;4.920;2023-05-29T07:37:47;9.27;;;2.15;;
17369;SDS011;8802;52.402;4.920;2023-05-29T07:40:17;7.53;;;2.17;;
17369;SDS011;8802;52.402;4.920;2023-05-29T07:42:44;7.78;;;2.05;;
17369;SDS011;8802;52.402;4.920;2023-05-29T07:45:11;8.90;;;2.17;;
17369;SDS011;8802;52.402;4.920;2023-05-29T07:47:39;6.80;;;1.90;;
17369;SDS011;8802;52.402;4.920;2023-05-29T07:50:06;7.32;;;1.80;;
17369;SDS011;8802;52.402;4.920;2023-05-29T07:52:34;6.95;;;2.17;;
17369;SDS011;8802;52.402;4.920;2023-05-29T07:55:01;12.02;;;2.00;;
17369;SDS011;8802;52.402;4.920;2023-05-29T07:57:28;7.38;;;2.22;;
17369;SDS011;8802;52.402;4.920;2023-05-29T07:59:55;6.28;;;2.00;;
17369;SDS011;8802;52.402;4.920;2023-05-29T08:02:22;8.13;;;2.28;;
17369;SDS011;8802;52.402;4.920;2023-05-29T08:04:51;11.15;;;2.17;;
17369;SDS011;8802;52.402;4.920;2023-05-29T08:07:18;10.85;;;2.03;;
17369;SDS011;8802;52.402;4.920;2023-05-29T08:09:45;8.77;;;2.25;;
17369;SDS011;8802;52.402;4.920;2023-05-29T08:12:12;10.85;;;2.20;;
17369;SDS011;8802;52.402;4.920;2023-05-29T08:14:39;6.30;;;2.17;;
17369;SDS011;8802;52.402;4.920;2023-05-29T08:17:06;8.55;;;2.20;;
17369;SDS011;8802;52.402;4.920;2023-05-29T08:19:32;9.50;;;2.40;;
17369;SDS011;8802;52.402;4.920;2023-05-29T08:22:01;6.28;;;2.10;;
17369;SDS011;8802;52.402;4.920;2023-05-29T08:24:28;8.73;;;2.35;;
17369;SDS011;8802;52.402;4.920;2023-05-29T08:26:55;11.75;;;2.20;;
17369;SDS011;8802;52.402;4.920;2023-05-29T08:29:22;8.27;;;2.28;;
17369;SDS011;8802;52.402;4.920;2023-05-29T08:31:49;9.48;;;2.25;;
17369;SDS011;8802;52.402;4.920;2023-05-29T08:34:16;4.50;;;1.90;;
17369;SDS011;8802;52.402;4.920;2023-05-29T08:36:43;8.43;;;2.30;;
17369;SDS011;8802;52.402;4.920;2023-05-29T08:39:11;8.77;;;1.92;;
17369;SDS011;8802;52.402;4.920;2023-05-29T08:41:41;8.93;;;2.25;;
17369;SDS011;8802;52.402;4.920;2023-05-29T08:44:13;7.15;;;2.33;;
17369;SDS011;8802;52.402;4.920;2023-05-29T08:46:43;10.00;;;2.70;;
17369;SDS011;8802;52.402;4.920;2023-05-29T08:49:11;10.63;;;2.10;;
17369;SDS011;8802;52.402;4.920;2023-05-29T08:51:42;7.05;;;2.00;;
17369;SDS011;8802;52.402;4.920;2023-05-29T08:54:16;10.20;;;2.47;;
17369;SDS011;8802;52.402;4.920;2023-05-29T08:56:43;8.20;;;2.47;;
17369;SDS011;8802;52.402;4.920;2023-05-29T08:59:10;8.73;;;1.83;;
17369;SDS011;8802;52.402;4.920;2023-05-29T09:01:38;9.63;;;1.98;;
17369;SDS011;8802;52.402;4.920;2023-05-29T09:04:06;5.32;;;1.95;;
17369;SDS011;8802;52.402;4.920;2023-05-29T09:06:33;11.43;;;2.72;;
17369;SDS011;8802;52.402;4.920;2023-05-29T09:09:00;9.73;;;2.28;;
17369;SDS011;8802;52.402;4.920;2023-05-29T09:11:30;6.75;;;2.50;;
17369;SDS011;8802;52.402;4.920;2023-05-29T09:13:57;6.60;;;1.90;;
17369;SDS011;8802;52.402;4.920;2023-05-29T09:16:24;10.02;;;2.10;;
17369;SDS011;8802;52.402;4.920;2023-05-29T09:18:51;10.30;;;2.38;;
17369;SDS011;8802;52.402;4.920;2023-05-29T09:21:25;9.75;;;2.50;;
17369;SDS011;8802;52.402;4.920;2023-05-29T09:23:53;7.88;;;2.80;;
17369;SDS011;8802;52.402;4.920;2023-05-29T09:26:21;9.27;;;2.38;;
17369;SDS011;8802;52.402;4.920;2023-05-29T09:28:49;7.95;;;2.10;;
17369;SDS011;8802;52.402;4.920;2023-05-29T09:31:16;6.90;;;2.40;;
17369;SDS011;8802;52.402;4.920;2023-05-29T09:33:48;14.02;;;2.42;;
17369;SDS011;8802;52.402;4.920;2023-05-29T09:36:19;10.30;;;3.00;;
17369;SDS011;8802;52.402;4.920;2023-05-29T09:38:48;10.88;;;2.88;;
17369;SDS011;8802;52.402;4.920;2023-05-29T09:41:20;8.07;;;2.60;;
17369;SDS011;8802;52.402;4.920;2023-05-29T09:43:50;8.00;;;2.75;;
17369;SDS011;8802;52.402;4.920;2023-05-29T09:46:18;7.70;;;2.30;;
17369;SDS011;8802;52.402;4.920;2023-05-29T09:48:45;7.65;;;2.65;;
17369;SDS011;8802;52.402;4.920;2023-05-29T09:51:19;9.35;;;2.67;;
17369;SDS011;8802;52.402;4.920;2023-05-29T09:53:48;11.80;;;2.58;;
17369;SDS011;8802;52.402;4.920;2023-05-29T09:56:15;8.25;;;2.67;;
17369;SDS011;8802;52.402;4.920;2023-05-29T09:58:44;7.70;;;2.85;;
17369;SDS011;8802;52.402;4.920;2023-05-29T10:01:13;8.55;;;2.70;;
17369;SDS011;8802;52.402;4.920;2023-05-29T10:03:41;9.13;;;3.00;;
17369;SDS011;8802;52.402;4.920;2023-05-29T10:06:09;13.80;;;3.00;;
17369;SDS011;8802;52.402;4.920;2023-05-29T10:08:40;8.80;;;2.90;;
17369;SDS011;8802;52.402;4.920;2023-05-29T10:11:14;10.93;;;3.15;;
17369;SDS011;8802;52.402;4.920;2023-05-29T10:13:42;7.35;;;2.67;;
17369;SDS011;8802;52.402;4.920;2023-05-29T10:16:16;8.50;;;3.00;;
17369;SDS011;8802;52.402;4.920;2023-05-29T10:18:47;10.25;;;3.22;;
17369;SDS011;8802;52.402;4.920;2023-05-29T10:21:19;9.70;;;3.20;;
17369;SDS011;8802;52.402;4.920;2023-05-29T10:23:48;10.15;;;3.08;;
17369;SDS011;8802;52.402;4.920;2023-05-29T10:26:18;8.82;;;3.40;;
17369;SDS011;8802;52.402;4.920;2023-05-29T10:28:49;8.25;;;3.13;;
17369;SDS011;8802;52.402;4.920;2023-05-29T10:31:24;12.95;;;3.13;;
17369;SDS011;8802;52.402;4.920;2023-05-29T10:34:00;7.95;;;2.95;;
17369;SDS011;8802;52.402;4.920;2023-05-29T10:36:36;10.10;;;3.25;;
17369;SDS011;8802;52.402;4.920;2023-05-29T10:39:09;9.57;;;3.20;;
17369;SDS011;8802;52.402;4.920;2023-05-29T10:41:37;10.13;;;3.70;;
17369;SDS011;8802;52.402;4.920;2023-05-29T10:47:09;14.23;;;3.97;;
17369;SDS011;8802;52.402;4.920;2023-05-29T10:49:37;10.63;;;3.70;;
17369;SDS011;8802;52.402;4.920;2023-05-29T10:52:04;14.63;;;4.25;;
17369;SDS011;8802;52.402;4.920;2023-05-29T10:54:49;10.60;;;3.17;;
17369;SDS011;8802;52.402;4.920;2023-05-29T10:57:22;10.90;;;3.72;;
17369;SDS011;8802;52.402;4.920;2023-05-29T10:59:57;11.50;;;3.38;;
17369;SDS011;8802;52.402;4.920;2023-05-29T11:02:40;11.15;;;3.88;;
17369;SDS011;8802;52.402;4.920;2023-05-29T11:05:20;10.07;;;3.50;;
17369;SDS011;8802;52.402;4.920;2023-05-29T11:07:51;10.10;;;3.50;;
17369;SDS011;8802;52.402;4.920;2023-05-29T11:10:41;10.15;;;3.55;;
17369;SDS011;8802;52.402;4.920;2023-05-29T11:13:24;10.18;;;3.50;;
17369;SDS011;8802;52.402;4.920;2023-05-29T11:16:09;11.20;;;3.55;;
17369;SDS011;8802;52.402;4.920;2023-05-29T11:18:40;7.65;;;3.50;;
17369;SDS011;8802;52.402;4.920;2023-05-29T11:21:12;10.38;;;3.50;;
17369;SDS011;8802;52.402;4.920;2023-05-29T11:23:49;9.43;;;3.40;;
17369;SDS011;8802;52.402;4.920;2023-05-29T11:26:17;9.02;;;3.20;;
17369;SDS011;8802;52.402;4.920;2023-05-29T11:28:45;9.75;;;3.63;;
17369;SDS011;8802;52.402;4.920;2023-05-29T11:31:12;7.57;;;2.88;;
17369;SDS011;8802;52.402;4.920;2023-05-29T11:33:46;11.43;;;3.33;;
17369;SDS011;8802;52.402;4.920;2023-05-29T11:36:16;9.95;;;3.08;;
17369;SDS011;8802;52.402;4.920;2023-05-29T11:38:44;10.18;;;2.60;;
17369;SDS011;8802;52.402;4.920;2023-05-29T11:41:11;10.15;;;3.53;;
17369;SDS011;8802;52.402;4.920;2023-05-29T11:43:38;11.75;;;3.67;;
17369;SDS011;8802;52.402;4.920;2023-05-29T11:46:14;8.65;;;3.03;;
17369;SDS011;8802;52.402;4.920;2023-05-29T11:48:46;10.27;;;3.03;;
17369;SDS011;8802;52.402;4.920;2023-05-29T11:51:13;9.82;;;3.47;;
17369;SDS011;8802;52.402;4.920;2023-05-29T11:53:41;10.82;;;3.33;;
17369;SDS011;8802;52.402;4.920;2023-05-29T11:56:08;9.98;;;3.40;;
17369;SDS011;8802;52.402;4.920;2023-05-29T11:58:36;10.05;;;3.00;;
17369;SDS011;8802;52.402;4.920;2023-05-29T12:01:03;10.30;;;3.72;;
17369;SDS011;8802;52.402;4.920;2023-05-29T12:03:31;12.32;;;3.78;;
17369;SDS011;8802;52.402;4.920;2023-05-29T12:06:04;12.68;;;2.83;;
17369;SDS011;8802;52.402;4.920;2023-05-29T12:08:32;9.13;;;2.78;;
17369;SDS011;8802;52.402;4.920;2023-05-29T12:10:59;12.23;;;3.50;;
17369;SDS011;8802;52.402;4.920;2023-05-29T12:13:26;9.68;;;3.10;;
17369;SDS011;8802;52.402;4.920;2023-05-29T12:15:54;10.25;;;3.35;;
17369;SDS011;8802;52.402;4.920;2023-05-29T12:18:24;10.30;;;3.13;;
17369;SDS011;8802;52.402;4.920;2023-05-29T12:20:56;9.45;;;3.35;;
17369;SDS011;8802;52.402;4.920;2023-05-29T12:23:25;10.68;;;3.72;;
17369;SDS011;8802;52.402;4.920;2023-05-29T12:25:53;11.90;;;3.35;;
17369;SDS011;8802;52.402;4.920;2023-05-29T12:28:21;10.75;;;3.30;;
17369;SDS011;8802;52.402;4.920;2023-05-29T12:30:48;11.93;;;3.30;;
17369;SDS011;8802;52.402;4.920;2023-05-29T12:33:28;10.60;;;2.88;;
17369;SDS011;8802;52.402;4.920;2023-05-29T12:36:06;12.00;;;3.40;;
17369;SDS011;8802;52.402;4.920;2023-05-29T12:38:41;14.68;;;3.28;;
17369;SDS011;8802;52.402;4.920;2023-05-29T12:41:21;11.50;;;3.10;;
17369;SDS011;8802;52.402;4.920;2023-05-29T12:43:52;13.10;;;3.40;;
17369;SDS011;8802;52.402;4.920;2023-05-29T12:46:21;11.52;;;3.30;;
17369;SDS011;8802;52.402;4.920;2023-05-29T12:48:49;11.35;;;3.13;;
17369;SDS011;8802;52.402;4.920;2023-05-29T12:51:17;10.35;;;2.97;;
17369;SDS011;8802;52.402;4.920;2023-05-29T12:53:50;10.60;;;3.40;;
17369;SDS011;8802;52.402;4.920;2023-05-29T12:56:20;12.90;;;3.72;;
17369;SDS011;8802;52.402;4.920;2023-05-29T12:58:48;9.07;;;2.90;;
17369;SDS011;8802;52.402;4.920;2023-05-29T13:01:16;11.20;;;2.80;;
17369;SDS011;8802;52.402;4.920;2023-05-29T13:03:42;10.02;;;3.03;;
17369;SDS011;8802;52.402;4.920;2023-05-29T13:06:09;8.95;;;3.08;;
17369;SDS011;8802;52.402;4.920;2023-05-29T13:08:37;9.48;;;3.05;;
17369;SDS011;8802;52.402;4.920;2023-05-29T13:11:05;7.05;;;2.80;;
17369;SDS011;8802;52.402;4.920;2023-05-29T13:13:32;10.55;;;3.17;;
17369;SDS011;8802;52.402;4.920;2023-05-29T13:15:59;12.10;;;3.25;;
17369;SDS011;8802;52.402;4.920;2023-05-29T13:18:26;11.52;;;3.25;;
17369;SDS011;8802;52.402;4.920;2023-05-29T13:20:53;7.32;;;2.72;;
17369;SDS011;8802;52.402;4.920;2023-05-29T13:23:20;9.30;;;2.92;;
17369;SDS011;8802;52.402;4.920;2023-05-29T13:25:47;10.48;;;3.30;;
17369;SDS011;8802;52.402;4.920;2023-05-29T13:28:16;11.27;;;3.22;;
17369;SDS011;8802;52.402;4.920;2023-05-29T13:30:43;10.48;;;3.40;;
17369;SDS011;8802;52.402;4.920;2023-05-29T13:33:10;8.95;;;2.95;;
17369;SDS011;8802;52.402;4.920;2023-05-29T13:35:37;11.68;;;3.05;;
17369;SDS011;8802;52.402;4.920;2023-05-29T13:38:04;9.65;;;3.25;;
17369;SDS011;8802;52.402;4.920;2023-05-29T13:40:31;13.25;;;3.00;;
17369;SDS011;8802;52.402;4.920;2023-05-29T13:42:58;11.13;;;3.40;;
17369;SDS011;8802;52.402;4.920;2023-05-29T13:45:26;12.40;;;3.00;;
17369;SDS011;8802;52.402;4.920;2023-05-29T13:47:54;11.75;;;3.10;;
17369;SDS011;8802;52.402;4.920;2023-05-29T13:50:21;11.20;;;3.25;;
17369;SDS011;8802;52.402;4.920;2023-05-29T13:52:49;7.95;;;3.08;;
17369;SDS011;8802;52.402;4.920;2023-05-29T13:55:17;12.10;;;3.45;;
17369;SDS011;8802;52.402;4.920;2023-05-29T13:57:43;13.48;;;3.35;;
17369;SDS011;8802;52.402;4.920;2023-05-29T14:00:11;11.63;;;2.70;;
17369;SDS011;8802;52.402;4.920;2023-05-29T14:02:40;11.43;;;3.38;;
17369;SDS011;8802;52.402;4.920;2023-05-29T14:05:07;6.68;;;2.80;;
17369;SDS011;8802;52.402;4.920;2023-05-29T14:07:36;13.38;;;2.80;;
17369;SDS011;8802;52.402;4.920;2023-05-29T14:10:03;8.40;;;2.97;;
17369;SDS011;8802;52.402;4.920;2023-05-29T14:12:30;10.57;;;2.85;;
17369;SDS011;8802;52.402;4.920;2023-05-29T14:14:57;9.38;;;2.78;;
17369;SDS011;8802;52.402;4.920;2023-05-29T14:17:24;10.95;;;2.70;;
17369;SDS011;8802;52.402;4.920;2023-05-29T14:19:53;9.43;;;2.72;;
17369;SDS011;8802;52.402;4.920;2023-05-29T14:22:20;11.25;;;2.85;;
17369;SDS011;8802;52.402;4.920;2023-05-29T14:24:47;7.68;;;2.60;;
17369;SDS011;8802;52.402;4.920;2023-05-29T14:27:14;9.10;;;3.03;;
17369;SDS011;8802;52.402;4.920;2023-05-29T14:29:41;10.45;;;3.42;;
17369;SDS011;8802;52.402;4.920;2023-05-29T14:32:08;11.98;;;2.83;;
17369;SDS011;8802;52.402;4.920;2023-05-29T14:34:35;13.85;;;3.30;;
17369;SDS011;8802;52.402;4.920;2023-05-29T14:37:03;8.38;;;2.38;;
17369;SDS011;8802;52.402;4.920;2023-05-29T14:39:30;10.60;;;2.80;;
17369;SDS011;8802;52.402;4.920;2023-05-29T14:41:57;10.55;;;3.03;;
17369;SDS011;8802;52.402;4.920;2023-05-29T14:44:24;9.27;;;2.90;;
17369;SDS011;8802;52.402;4.920;2023-05-29T14:46:52;10.45;;;2.80;;
17369;SDS011;8802;52.402;4.920;2023-05-29T14:49:19;8.77;;;2.63;;
17369;SDS011;8802;52.402;4.920;2023-05-29T14:51:46;12.32;;;3.10;;
17369;SDS011;8802;52.402;4.920;2023-05-29T14:54:14;13.75;;;2.70;;
17369;SDS011;8802;52.402;4.920;2023-05-29T14:56:41;10.52;;;2.65;;
17369;SDS011;8802;52.402;4.920;2023-05-29T14:59:08;10.20;;;2.45;;
17369;SDS011;8802;52.402;4.920;2023-05-29T15:01:35;9.70;;;2.50;;
17369;SDS011;8802;52.402;4.920;2023-05-29T15:04:02;10.55;;;2.55;;
17369;SDS011;8802;52.402;4.920;2023-05-29T15:06:30;9.88;;;2.42;;
17369;SDS011;8802;52.402;4.920;2023-05-29T15:08:57;10.50;;;2.90;;